createdAt,value
2018-03-27T00:02:15.319Z,13.40
2018-03-27T00:04:42.925Z,12.13
2018-03-27T00:07:10.560Z,11.77
2018-03-27T00:09:38.173Z,12.00
2018-03-27T00:12:05.804Z,11.80
2018-03-27T00:14:33.416Z,10.97
2018-03-27T00:17:01.147Z,12.40
2018-03-27T00:19:28.760Z,10.97
2018-03-27T00:21:56.396Z,12.27
2018-03-27T00:24:24.028Z,10.90
2018-03-27T00:27:00.316Z,11.67
2018-03-27T00:29:39.780Z,12.07
2018-03-27T00:32:19.281Z,10.10
2018-03-27T00:34:58.748Z,15.20
2018-03-27T00:37:38.261Z,14.60
2018-03-27T00:40:17.798Z,12.50
2018-03-27T00:42:50.889Z,10.80
2018-03-27T00:45:18.552Z,11.77
2018-03-27T00:47:46.189Z,10.93
2018-03-27T00:50:13.809Z,11.70
2018-03-27T00:52:41.436Z,11.73
2018-03-27T00:55:09.072Z,12.17
2018-03-27T00:57:36.683Z,11.97
2018-03-27T01:00:04.317Z,12.03
2018-03-27T01:02:31.928Z,12.60
2018-03-27T01:05:05.004Z,11.63
2018-03-27T01:07:32.631Z,11.00
2018-03-27T01:10:00.266Z,11.83
2018-03-27T01:12:27.877Z,13.67
2018-03-27T01:14:55.508Z,11.93
2018-03-27T01:17:23.187Z,12.57
2018-03-27T01:19:50.820Z,12.60
2018-03-27T01:22:18.510Z,13.60
2018-03-27T01:24:46.144Z,12.70
2018-03-27T01:27:13.761Z,11.90
2018-03-27T01:29:41.392Z,11.83
2018-03-27T01:32:08.995Z,11.67
2018-03-27T01:34:36.624Z,12.20
2018-03-27T01:37:04.279Z,13.50
2018-03-27T01:39:31.915Z,12.37
2018-03-27T01:41:59.529Z,12.57
2018-03-27T01:44:27.272Z,12.77
2018-03-27T01:46:54.879Z,14.20
2018-03-27T01:49:22.515Z,14.20
2018-03-27T01:51:50.121Z,12.60
2018-03-27T01:54:17.760Z,12.93
2018-03-27T01:56:45.484Z,11.97
2018-03-27T01:59:13.112Z,11.27
2018-03-27T02:01:40.803Z,13.17
2018-03-27T02:04:08.436Z,12.03
2018-03-27T02:06:36.049Z,12.43
2018-03-27T02:09:03.796Z,12.77
2018-03-27T02:11:37.032Z,12.83
2018-03-27T02:14:10.235Z,12.37
2018-03-27T02:16:43.528Z,13.13
2018-03-27T02:19:16.778Z,12.60
2018-03-27T02:21:43.825Z,11.47
2018-03-27T02:24:16.032Z,12.87
2018-03-27T02:26:43.644Z,12.40
2018-03-27T02:29:11.275Z,11.63
2018-03-27T02:31:38.891Z,11.30
2018-03-27T02:34:06.639Z,12.30
2018-03-27T02:36:34.253Z,12.10
2018-03-27T02:39:01.970Z,11.50
2018-03-27T02:41:29.581Z,11.73
2018-03-27T02:43:57.193Z,11.70
2018-03-27T02:46:24.847Z,11.70
2018-03-27T02:48:52.457Z,11.57
2018-03-27T02:51:20.092Z,10.80
2018-03-27T02:53:47.702Z,12.23
2018-03-27T02:56:15.406Z,11.90
2018-03-27T02:58:42.307Z,12.00
2018-03-27T03:01:09.945Z,11.60
2018-03-27T03:03:37.561Z,12.07
2018-03-27T03:06:05.197Z,11.60
2018-03-27T03:08:32.900Z,10.23
2018-03-27T03:11:00.527Z,10.70
2018-03-27T03:13:28.140Z,11.23
2018-03-27T03:15:55.774Z,11.50
2018-03-27T03:18:23.384Z,11.10
2018-03-27T03:20:51.020Z,11.60
2018-03-27T03:23:18.637Z,11.57
2018-03-27T03:25:46.276Z,11.60
2018-03-27T03:28:13.938Z,11.37
2018-03-27T03:30:41.552Z,11.13
2018-03-27T03:33:09.215Z,12.33
2018-03-27T03:35:36.856Z,13.87
2018-03-27T03:38:04.477Z,11.67
2018-03-27T03:40:32.204Z,12.33
2018-03-27T03:42:59.812Z,12.40
2018-03-27T03:45:27.524Z,12.70
2018-03-27T03:47:55.161Z,12.33
2018-03-27T03:50:22.793Z,12.70
2018-03-27T03:52:50.414Z,13.20
2018-03-27T03:55:18.048Z,12.97
2018-03-27T03:57:45.664Z,12.50
2018-03-27T04:00:13.300Z,11.80
2018-03-27T04:02:40.913Z,13.70
2018-03-27T04:05:08.545Z,13.37
2018-03-27T04:07:36.160Z,13.10
2018-03-27T04:10:03.843Z,12.40
2018-03-27T04:12:31.528Z,15.07
2018-03-27T04:14:59.280Z,13.30
2018-03-27T04:17:26.884Z,13.37
2018-03-27T04:19:54.651Z,11.80
2018-03-27T04:22:22.232Z,11.27
2018-03-27T04:24:49.933Z,12.03
2018-03-27T04:27:17.575Z,11.90
2018-03-27T04:29:45.184Z,10.77
2018-03-27T04:32:12.819Z,10.97
2018-03-27T04:34:40.428Z,11.10
2018-03-27T04:37:08.064Z,11.47
2018-03-27T04:39:35.668Z,10.97
2018-03-27T04:42:03.301Z,10.90
2018-03-27T04:44:30.908Z,10.50
2018-03-27T04:46:58.540Z,10.23
2018-03-27T04:49:26.144Z,9.77
2018-03-27T04:51:53.776Z,10.93
2018-03-27T04:54:21.467Z,11.03
2018-03-27T04:56:49.095Z,10.70
2018-03-27T04:59:16.700Z,11.87
2018-03-27T05:01:44.332Z,10.17
2018-03-27T05:04:12.016Z,12.15
2018-03-27T05:06:39.677Z,12.20
2018-03-27T05:09:07.341Z,10.70
2018-03-27T05:11:34.976Z,10.43
2018-03-27T05:14:02.593Z,11.00
2018-03-27T05:16:30.331Z,10.93
2018-03-27T05:18:57.992Z,11.10
2018-03-27T05:21:25.654Z,11.90
2018-03-27T05:23:53.320Z,10.70
2018-03-27T05:26:20.990Z,11.00
2018-03-27T05:28:48.604Z,11.17
2018-03-27T05:31:16.239Z,10.63
2018-03-27T05:33:43.852Z,11.13
2018-03-27T05:36:11.493Z,11.40
2018-03-27T05:38:39.215Z,11.20
2018-03-27T05:41:06.956Z,11.73
2018-03-27T05:43:35.144Z,11.67
2018-03-27T05:46:02.896Z,11.77
2018-03-27T05:48:30.560Z,11.83
2018-03-27T05:50:58.198Z,11.30
2018-03-27T05:53:25.892Z,11.67
2018-03-27T05:55:53.608Z,14.13
2018-03-27T05:58:21.224Z,12.30
2018-03-27T06:00:48.852Z,11.53
2018-03-27T06:03:16.468Z,15.00
2018-03-27T06:05:44.084Z,12.37
2018-03-27T06:08:11.837Z,11.23
2018-03-27T06:10:39.504Z,12.50
2018-03-27T06:13:07.187Z,12.77
2018-03-27T06:15:34.804Z,11.83
2018-03-27T06:18:02.440Z,13.00
2018-03-27T06:20:30.056Z,12.53
2018-03-27T06:22:57.689Z,11.87
2018-03-27T06:25:25.404Z,12.13
2018-03-27T06:27:53.164Z,11.70
2018-03-27T06:30:20.771Z,12.60
2018-03-27T06:32:48.496Z,11.83
2018-03-27T06:35:16.099Z,12.07
2018-03-27T06:37:43.736Z,12.17
2018-03-27T06:40:12.906Z,12.10
2018-03-27T06:42:40.581Z,11.60
2018-03-27T06:45:08.205Z,11.40
2018-03-27T06:47:35.839Z,13.53
2018-03-27T06:50:03.481Z,12.30
2018-03-27T06:52:31.112Z,13.73
2018-03-27T06:54:58.796Z,13.30
2018-03-27T06:57:26.457Z,14.80
2018-03-27T06:59:54.074Z,14.70
2018-03-27T07:02:21.779Z,13.07
2018-03-27T07:04:49.439Z,14.67
2018-03-27T07:07:17.093Z,14.80
2018-03-27T07:09:44.764Z,15.27
2018-03-27T07:12:12.400Z,15.00
2018-03-27T07:14:40.012Z,14.67
2018-03-27T07:17:07.641Z,14.93
2018-03-27T07:19:35.339Z,15.03
2018-03-27T07:22:03.088Z,15.30
2018-03-27T07:24:30.746Z,17.90
2018-03-27T07:26:58.444Z,16.23
2018-03-27T07:29:26.068Z,16.90
2018-03-27T07:31:53.700Z,15.77
2018-03-27T07:34:21.492Z,15.80
2018-03-27T07:36:49.157Z,16.10
2018-03-27T07:39:16.829Z,18.17
2018-03-27T07:41:44.464Z,17.60
2018-03-27T07:44:12.072Z,15.80
2018-03-27T07:46:39.684Z,18.40
2018-03-27T07:49:07.316Z,15.90
2018-03-27T07:51:35.052Z,17.27
2018-03-27T07:54:02.706Z,20.20
2018-03-27T07:56:30.311Z,17.17
2018-03-27T07:58:57.944Z,19.57
2018-03-27T08:01:25.576Z,18.57
2018-03-27T08:03:53.211Z,18.73
2018-03-27T08:06:20.909Z,19.23
2018-03-27T08:08:48.544Z,17.93
2018-03-27T08:11:16.292Z,20.77
2018-03-27T08:13:44.061Z,20.03
2018-03-27T08:16:11.665Z,21.50
2018-03-27T08:18:39.291Z,19.67
2018-03-27T08:21:06.891Z,25.17
2018-03-27T08:23:34.543Z,23.20
2018-03-27T08:26:02.205Z,22.27
2018-03-27T08:28:29.840Z,25.40
2018-03-27T08:30:57.539Z,25.23
2018-03-27T08:33:25.205Z,25.50
2018-03-27T08:35:52.815Z,24.80
2018-03-27T08:38:20.450Z,25.70
2018-03-27T08:40:48.056Z,24.07
2018-03-27T08:43:15.754Z,23.27
2018-03-27T08:45:43.406Z,22.23
2018-03-27T08:48:11.081Z,22.43
2018-03-27T08:50:38.688Z,20.77
2018-03-27T08:53:06.324Z,22.60
2018-03-27T08:55:33.931Z,21.13
2018-03-27T08:58:01.568Z,19.00
2018-03-27T09:00:29.185Z,20.80
2018-03-27T09:02:56.821Z,19.40
2018-03-27T09:05:24.530Z,17.37
2018-03-27T09:07:52.167Z,18.43
2018-03-27T09:10:19.779Z,19.53
2018-03-27T09:12:47.412Z,18.77
2018-03-27T09:15:15.071Z,16.47
2018-03-27T09:17:42.824Z,18.73
2018-03-27T09:20:10.440Z,18.83
2018-03-27T09:22:38.128Z,17.93
2018-03-27T09:25:05.820Z,18.57
2018-03-27T09:27:33.441Z,17.40
2018-03-27T09:30:01.100Z,15.90
2018-03-27T09:32:28.800Z,17.33
2018-03-27T09:34:56.566Z,18.13
2018-03-27T09:37:24.196Z,16.87
2018-03-27T09:39:51.892Z,19.03
2018-03-27T09:42:19.553Z,14.80
2018-03-27T09:44:47.192Z,15.50
2018-03-27T09:47:15.583Z,15.70
2018-03-27T09:49:43.868Z,15.07
2018-03-27T09:52:11.484Z,14.37
2018-03-27T09:54:39.196Z,15.13
2018-03-27T09:57:06.816Z,16.87
2018-03-27T09:59:34.453Z,16.40
2018-03-27T10:02:02.063Z,15.87
2018-03-27T10:04:29.784Z,15.07
2018-03-27T10:06:57.392Z,16.60
2018-03-27T10:09:25.065Z,16.93
2018-03-27T10:11:52.676Z,16.83
2018-03-27T10:14:20.313Z,15.80
2018-03-27T10:16:47.920Z,16.27
2018-03-27T10:19:15.557Z,15.97
2018-03-27T10:21:43.173Z,15.50
2018-03-27T10:24:10.808Z,16.40
2018-03-27T10:26:38.421Z,15.10
2018-03-27T10:29:06.125Z,17.83
2018-03-27T10:31:33.745Z,16.73
2018-03-27T10:34:01.385Z,15.23
2018-03-27T10:36:29.003Z,15.63
2018-03-27T10:38:56.639Z,12.90
2018-03-27T10:41:24.247Z,14.77
2018-03-27T10:43:51.888Z,14.67
2018-03-27T10:46:19.499Z,15.63
2018-03-27T10:48:47.169Z,14.30
2018-03-27T10:51:14.828Z,15.10
2018-03-27T10:53:42.464Z,18.23
2018-03-27T10:56:10.077Z,13.90
2018-03-27T10:58:37.879Z,14.07
2018-03-27T11:01:05.497Z,14.43
2018-03-27T11:03:33.136Z,15.10
2018-03-27T11:06:00.752Z,15.00
2018-03-27T11:08:28.468Z,14.93
2018-03-27T11:10:56.128Z,13.53
2018-03-27T11:13:23.787Z,14.13
2018-03-27T11:15:51.455Z,12.43
2018-03-27T11:18:19.124Z,12.63
2018-03-27T11:20:46.765Z,11.50
2018-03-27T11:23:14.374Z,11.80
2018-03-27T11:25:42.015Z,10.63
2018-03-27T11:28:09.624Z,11.00
2018-03-27T11:30:37.266Z,12.67
2018-03-27T11:33:04.881Z,10.73
2018-03-27T11:35:32.547Z,12.40
2018-03-27T11:38:00.804Z,12.93
2018-03-27T11:40:28.441Z,12.50
2018-03-27T11:42:56.153Z,11.33
2018-03-27T11:45:23.816Z,11.03
2018-03-27T11:47:51.433Z,14.37
2018-03-27T11:50:19.145Z,12.50
2018-03-27T11:52:46.760Z,10.63
2018-03-27T11:55:14.404Z,19.33
2018-03-27T11:57:42.021Z,10.70
2018-03-27T12:00:10.160Z,12.30
2018-03-27T12:02:37.868Z,10.83
2018-03-27T12:05:05.504Z,13.03
2018-03-27T12:07:33.196Z,11.83
2018-03-27T12:10:00.844Z,14.17
2018-03-27T12:12:28.523Z,11.07
2018-03-27T12:14:56.180Z,10.43
2018-03-27T12:17:23.939Z,9.00
2018-03-27T12:19:51.576Z,9.20
2018-03-27T12:22:19.213Z,9.50
2018-03-27T12:24:46.847Z,8.30
2018-03-27T12:27:14.456Z,8.37
2018-03-27T12:29:42.149Z,8.73
2018-03-27T12:32:09.756Z,7.63
2018-03-27T12:34:37.394Z,8.53
2018-03-27T12:37:05.005Z,8.17
2018-03-27T12:39:32.631Z,9.07
2018-03-27T12:42:00.243Z,8.57
2018-03-27T12:44:27.856Z,8.73
2018-03-27T12:46:55.492Z,8.40
2018-03-27T12:49:23.113Z,10.40
2018-03-27T12:51:50.768Z,10.80
2018-03-27T12:54:18.472Z,9.63
2018-03-27T12:56:46.106Z,9.20
2018-03-27T12:59:13.731Z,9.40
2018-03-27T13:01:41.372Z,9.10
2018-03-27T13:04:09.017Z,10.20
2018-03-27T13:06:36.648Z,9.00
2018-03-27T13:09:04.348Z,8.73
2018-03-27T13:11:31.975Z,7.80
2018-03-27T13:13:59.585Z,8.67
2018-03-27T13:16:27.229Z,8.30
2018-03-27T13:18:54.956Z,8.80
2018-03-27T13:21:22.748Z,8.07
2018-03-27T13:23:50.423Z,8.87
2018-03-27T13:26:18.290Z,10.00
2018-03-27T13:28:45.960Z,10.10
2018-03-27T13:31:13.632Z,8.40
2018-03-27T13:33:41.280Z,7.77
2018-03-27T13:36:08.944Z,7.97
2018-03-27T13:38:36.614Z,5.43
2018-03-27T13:41:04.580Z,6.57
2018-03-27T13:43:32.335Z,6.90
2018-03-27T13:45:59.968Z,6.60
2018-03-27T13:48:27.568Z,9.17
2018-03-27T13:50:55.505Z,8.57
2018-03-27T13:53:23.136Z,9.20
2018-03-27T13:55:50.755Z,5.73
2018-03-27T13:58:18.521Z,6.73
2018-03-27T14:00:46.148Z,6.30
2018-03-27T14:03:13.847Z,5.97
2018-03-27T14:05:41.613Z,5.20
2018-03-27T14:08:09.223Z,6.03
2018-03-27T14:10:36.844Z,5.43
2018-03-27T14:13:04.500Z,5.73
2018-03-27T14:15:32.164Z,5.40
2018-03-27T14:17:59.985Z,6.27
2018-03-27T14:20:27.612Z,6.97
2018-03-27T14:22:55.256Z,7.10
2018-03-27T14:25:22.900Z,6.77
2018-03-27T14:27:50.542Z,7.20
2018-03-27T14:30:18.149Z,6.07
2018-03-27T14:32:46.106Z,6.90
2018-03-27T14:35:13.828Z,6.30
2018-03-27T14:37:41.534Z,6.73
2018-03-27T14:40:09.176Z,7.50
2018-03-27T14:42:36.808Z,8.00
2018-03-27T14:45:04.425Z,8.03
2018-03-27T14:47:32.056Z,7.70
2018-03-27T14:49:59.749Z,7.90
2018-03-27T14:52:27.378Z,5.53
2018-03-27T14:54:55.076Z,6.40
2018-03-27T14:57:22.735Z,6.60
2018-03-27T14:59:50.413Z,6.20
2018-03-27T15:02:18.058Z,7.57
2018-03-27T15:04:45.663Z,7.73
2018-03-27T15:07:13.392Z,20.73
2018-03-27T15:09:41.016Z,12.80
2018-03-27T15:12:08.717Z,24.17
2018-03-27T15:14:36.332Z,13.57
2018-03-27T15:17:04.046Z,24.40
2018-03-27T15:19:31.698Z,8.97
2018-03-27T15:21:59.327Z,8.03
2018-03-27T15:24:26.941Z,8.43
2018-03-27T15:26:54.846Z,6.00
2018-03-27T15:29:22.540Z,7.23
2018-03-27T15:31:50.276Z,7.87
2018-03-27T15:34:17.884Z,9.47
2018-03-27T15:36:45.645Z,7.27
2018-03-27T15:39:13.252Z,7.40
2018-03-27T15:41:40.884Z,8.80
2018-03-27T15:44:08.521Z,8.10
2018-03-27T15:46:36.175Z,8.03
2018-03-27T15:49:03.780Z,7.30
2018-03-27T15:51:31.407Z,8.73
2018-03-27T15:53:59.020Z,8.53
2018-03-27T15:56:26.648Z,7.40
2018-03-27T15:58:54.258Z,7.70
2018-03-27T16:01:21.891Z,8.37
2018-03-27T16:03:49.552Z,8.40
2018-03-27T16:06:17.196Z,8.33
2018-03-27T16:08:44.828Z,8.00
2018-03-27T16:11:12.449Z,11.33
2018-03-27T16:13:40.075Z,8.70
2018-03-27T16:16:08.048Z,9.17
2018-03-27T16:18:35.672Z,8.60
2018-03-27T16:21:03.290Z,11.23
2018-03-27T16:23:30.929Z,10.17
2018-03-27T16:25:58.573Z,9.00
2018-03-27T16:28:26.271Z,9.43
2018-03-27T16:30:53.877Z,8.17
2018-03-27T16:33:21.504Z,9.00
2018-03-27T16:35:49.109Z,6.80
2018-03-27T16:38:16.809Z,7.77
2018-03-27T16:40:44.466Z,6.47
2018-03-27T16:43:12.092Z,7.90
2018-03-27T16:45:39.798Z,5.93
2018-03-27T16:48:07.667Z,11.10
2018-03-27T16:50:36.557Z,6.70
2018-03-27T16:53:04.188Z,6.83
2018-03-27T16:55:31.787Z,7.33
2018-03-27T16:57:59.416Z,8.40
2018-03-27T17:00:27.027Z,7.10
2018-03-27T17:02:54.657Z,6.83
2018-03-27T17:05:22.324Z,17.70
2018-03-27T17:07:49.988Z,9.10
2018-03-27T17:10:17.658Z,8.00
2018-03-27T17:12:45.300Z,7.77
2018-03-27T17:15:12.976Z,7.60
2018-03-27T17:17:40.603Z,8.33
2018-03-27T17:20:08.224Z,8.53
2018-03-27T17:22:35.869Z,8.43
2018-03-27T17:25:03.529Z,8.73
2018-03-27T17:27:31.287Z,9.00
2018-03-27T17:29:59.564Z,10.27
2018-03-27T17:32:27.334Z,8.00
2018-03-27T17:34:54.972Z,9.53
2018-03-27T17:37:22.665Z,9.97
2018-03-27T17:39:50.278Z,8.70
2018-03-27T17:42:18.047Z,9.00
2018-03-27T17:44:45.648Z,9.10
2018-03-27T17:47:13.257Z,9.10
2018-03-27T17:49:40.971Z,8.17
2018-03-27T17:52:08.693Z,8.87
2018-03-27T17:54:36.504Z,8.13
2018-03-27T17:57:04.104Z,6.87
2018-03-27T17:59:31.733Z,8.00
2018-03-27T18:01:59.385Z,7.37
2018-03-27T18:04:27.047Z,7.67
2018-03-27T18:06:54.656Z,7.83
2018-03-27T18:09:22.670Z,7.53
2018-03-27T18:11:50.492Z,7.80
2018-03-27T18:14:18.123Z,8.70
2018-03-27T18:16:45.771Z,7.07
2018-03-27T18:19:13.535Z,7.63
2018-03-27T18:21:41.145Z,7.30
2018-03-27T18:24:08.872Z,8.47
2018-03-27T18:26:36.480Z,8.30
2018-03-27T18:29:04.112Z,8.73
2018-03-27T18:31:31.851Z,8.60
2018-03-27T18:33:59.480Z,8.40
2018-03-27T18:36:27.179Z,8.67
2018-03-27T18:38:54.860Z,8.37
2018-03-27T18:41:22.468Z,8.03
2018-03-27T18:43:50.116Z,8.10
2018-03-27T18:46:17.825Z,8.17
2018-03-27T18:48:45.468Z,8.10
2018-03-27T18:51:13.152Z,8.60
2018-03-27T18:53:40.920Z,8.00
2018-03-27T18:56:08.589Z,8.00
2018-03-27T18:58:36.404Z,8.27
2018-03-27T19:01:04.349Z,7.20
2018-03-27T19:03:32.079Z,8.87
2018-03-27T19:05:59.687Z,8.00
2018-03-27T19:08:27.320Z,10.20
2018-03-27T19:10:54.928Z,11.43
2018-03-27T19:13:22.561Z,11.57
2018-03-27T19:15:50.178Z,14.70
2018-03-27T19:18:17.788Z,13.50
2018-03-27T19:20:45.516Z,10.00
2018-03-27T19:23:13.221Z,10.93
2018-03-27T19:25:40.778Z,11.10
2018-03-27T19:28:08.383Z,10.20
2018-03-27T19:30:36.068Z,10.60
2018-03-27T19:33:03.680Z,10.23
2018-03-27T19:35:31.316Z,10.73
2018-03-27T19:37:58.951Z,10.27
2018-03-27T19:40:26.585Z,10.50
2018-03-27T19:42:54.204Z,11.10
2018-03-27T19:45:21.867Z,12.07
2018-03-27T19:47:49.504Z,10.93
2018-03-27T19:50:17.137Z,10.50
2018-03-27T19:52:44.792Z,11.93
2018-03-27T19:55:12.564Z,14.93
2018-03-27T19:57:40.175Z,13.73
2018-03-27T20:00:07.808Z,13.83
2018-03-27T20:02:35.683Z,12.73
2018-03-27T20:05:03.532Z,12.10
2018-03-27T20:07:31.145Z,10.73
2018-03-27T20:09:58.872Z,11.37
2018-03-27T20:12:26.545Z,11.03
2018-03-27T20:14:54.205Z,10.60
2018-03-27T20:17:21.859Z,10.70
2018-03-27T20:19:49.536Z,12.00
2018-03-27T20:22:17.144Z,10.80
2018-03-27T20:24:44.853Z,10.03
2018-03-27T20:27:12.459Z,10.97
2018-03-27T20:29:40.176Z,10.67
2018-03-27T20:32:07.784Z,9.20
2018-03-27T20:34:35.504Z,10.57
2018-03-27T20:37:03.160Z,10.30
2018-03-27T20:39:30.796Z,10.53
2018-03-27T20:41:58.414Z,9.53
2018-03-27T20:44:26.053Z,10.30
2018-03-27T20:46:53.662Z,9.90
2018-03-27T20:49:21.288Z,9.47
2018-03-27T20:51:48.896Z,9.10
2018-03-27T20:54:16.604Z,9.63
2018-03-27T20:56:44.208Z,9.13
2018-03-27T20:59:11.829Z,8.00
2018-03-27T21:01:39.483Z,9.00
2018-03-27T21:04:07.148Z,8.70
2018-03-27T21:06:34.808Z,8.50
2018-03-27T21:09:02.413Z,8.87
2018-03-27T21:11:30.044Z,8.23
2018-03-27T21:13:57.649Z,8.30
2018-03-27T21:16:25.355Z,8.20
2018-03-27T21:18:53.020Z,7.80
2018-03-27T21:21:20.651Z,8.23
2018-03-27T21:23:48.252Z,8.53
2018-03-27T21:26:15.876Z,7.63
2018-03-27T21:28:43.480Z,8.63
2018-03-27T21:31:11.113Z,8.07
2018-03-27T21:33:38.893Z,7.60
2018-03-27T21:36:06.556Z,8.00
2018-03-27T21:38:34.160Z,7.67
2018-03-27T21:41:01.800Z,9.20
2018-03-27T21:43:29.399Z,8.07
2018-03-27T21:45:57.031Z,7.57
2018-03-27T21:48:24.668Z,8.20
2018-03-27T21:50:52.292Z,8.43
2018-03-27T21:53:19.905Z,8.17
2018-03-27T21:55:47.533Z,7.80
2018-03-27T21:58:15.212Z,8.27
2018-03-27T22:00:42.849Z,8.57
2018-03-27T22:03:10.536Z,7.83
2018-03-27T22:05:38.200Z,7.93
2018-03-27T22:08:05.804Z,8.00
2018-03-27T22:10:39.364Z,7.83
2018-03-27T22:13:07.032Z,8.47
2018-03-27T22:15:34.687Z,7.77
2018-03-27T22:18:02.363Z,8.80
2018-03-27T22:20:30.001Z,8.20
2018-03-27T22:22:57.694Z,8.50
2018-03-27T22:25:25.339Z,8.80
2018-03-27T22:27:52.943Z,8.70
2018-03-27T22:30:20.669Z,7.90
2018-03-27T22:32:48.272Z,8.63
2018-03-27T22:35:15.991Z,8.60
2018-03-27T22:37:43.591Z,8.73
2018-03-27T22:40:11.212Z,7.73
2018-03-27T22:42:38.848Z,8.97
2018-03-27T22:45:06.456Z,8.13
2018-03-27T22:47:34.091Z,8.90
2018-03-27T22:50:01.764Z,9.37
2018-03-27T22:52:29.428Z,8.50
2018-03-27T22:54:57.100Z,7.03
2018-03-27T22:57:24.751Z,8.67
2018-03-27T22:59:52.413Z,8.50
2018-03-27T23:02:20.044Z,7.97
2018-03-27T23:04:47.741Z,8.37
2018-03-27T23:07:15.414Z,7.53
2018-03-27T23:09:43.064Z,7.47
2018-03-27T23:12:10.728Z,7.23
2018-03-27T23:14:38.393Z,6.80
2018-03-27T23:17:06.016Z,7.33
2018-03-27T23:19:33.716Z,7.30
2018-03-27T23:22:01.382Z,7.87
2018-03-27T23:24:29.040Z,7.47
2018-03-27T23:26:56.704Z,7.13
2018-03-27T23:29:24.312Z,6.80
2018-03-27T23:31:51.941Z,6.33
2018-03-27T23:34:19.544Z,7.17
2018-03-27T23:36:47.168Z,7.30
2018-03-27T23:39:14.772Z,6.87
2018-03-27T23:41:42.400Z,8.10
2018-03-27T23:44:10.010Z,7.33
2018-03-27T23:46:37.633Z,6.93
2018-03-27T23:49:05.240Z,6.53
2018-03-27T23:51:32.920Z,5.90
2018-03-27T23:54:00.524Z,5.60
2018-03-27T23:56:28.248Z,5.80
2018-03-27T23:58:55.895Z,6.20
